Time;durP1;ratioP1;P1;durP2;ratioP2;P2;SDS_P1;SDS_P2;PMS_P1;PMS_P2;Temp;Humidity;BMP_temperature;BMP_pressure;BME280_temperature;BME280_humidity;BME280_pressure;Samples;Min_cycle;Max_cycle;Signal;HPM_P1;HPM_P2
2024/03/09 00:01:34;;;;;;;24.10;18.20;;;9.80;78.10;;;;;;4973762;28;20030;-90
2024/03/09 00:04:01;;;;;;;23.65;18.52;;;9.80;78.10;;;;;;5007524;28;20033;-90
2024/03/09 00:06:27;;;;;;;24.30;18.33;;;9.80;78.10;;;;;;4991303;28;20117;-78
2024/03/09 00:08:53;;;;;;;25.77;18.55;;;9.80;78.10;;;;;;4993088;28;20113;-79
2024/03/09 00:11:19;;;;;;;25.23;18.83;;;9.70;78.10;;;;;;4978045;28;20029;-90
2024/03/09 00:13:44;;;;;;;27.10;19.95;;;9.70;78.70;;;;;;4980963;28;20552;-79
2024/03/09 00:16:10;;;;;;;24.83;18.92;;;9.70;78.10;;;;;;4992602;28;20038;-90
2024/03/09 00:18:37;;;;;;;26.20;18.10;;;9.70;78.10;;;;;;4967697;28;20053;-91
2024/03/09 00:21:08;;;;;;;25.30;18.67;;;9.70;78.20;;;;;;4993196;28;20098;-84
2024/03/09 00:23:34;;;;;;;25.77;18.75;;;9.70;78.20;;;;;;5010760;28;20021;-90
2024/03/09 00:26:00;;;;;;;24.48;17.98;;;9.70;78.10;;;;;;4989506;28;20113;-79
2024/03/09 00:28:30;;;;;;;26.42;19.25;;;9.60;78.10;;;;;;4986632;28;20022;-79
2024/03/09 00:30:56;;;;;;;26.25;19.02;;;9.60;78.10;;;;;;4996823;28;20116;-80
2024/03/09 00:33:23;;;;;;;26.52;19.60;;;9.60;78.10;;;;;;4993213;28;20034;-88
2024/03/09 00:35:49;;;;;;;26.67;19.63;;;9.60;78.20;;;;;;4977265;28;20481;-79
2024/03/09 00:38:17;;;;;;;25.40;18.85;;;9.60;78.20;;;;;;5006420;28;20026;-80
2024/03/09 00:40:43;;;;;;;24.05;18.42;;;9.50;78.10;;;;;;4994002;28;20033;-79
2024/03/09 00:43:09;;;;;;;24.30;18.15;;;9.50;78.10;;;;;;4978381;28;20030;-79
2024/03/09 00:45:36;;;;;;;28.77;20.27;;;9.50;78.10;;;;;;4992291;28;20023;-79
2024/03/09 00:48:03;;;;;;;26.90;19.35;;;9.50;78.10;;;;;;4976145;28;20385;-90
2024/03/09 00:50:29;;;;;;;24.77;18.55;;;9.50;78.00;;;;;;5011067;28;20485;-91
2024/03/09 00:52:55;;;;;;;24.60;18.70;;;9.50;78.10;;;;;;4975893;28;20041;-89
2024/03/09 00:55:22;;;;;;;24.92;19.48;;;9.40;78.00;;;;;;4975552;28;20034;-79
2024/03/09 00:57:50;;;;;;;27.42;19.60;;;9.40;78.00;;;;;;4991493;28;20110;-79
2024/03/09 01:00:18;;;;;;;25.20;18.90;;;9.40;78.00;;;;;;4977057;28;20033;-78
2024/03/09 01:02:45;;;;;;;27.52;19.75;;;9.40;78.00;;;;;;4977511;28;20057;-89
2024/03/09 01:05:12;;;;;;;24.52;17.98;;;9.40;78.00;;;;;;4977636;28;20194;-79
2024/03/09 01:07:40;;;;;;;27.23;19.73;;;9.40;78.00;;;;;;4996328;28;20022;-89
2024/03/09 01:10:07;;;;;;;25.38;19.95;;;9.40;78.10;;;;;;4990625;28;20501;-79
2024/03/09 01:12:36;;;;;;;25.23;18.33;;;9.30;78.00;;;;;;4986160;28;20033;-79
2024/03/09 01:15:06;;;;;;;25.48;18.58;;;9.30;78.00;;;;;;4993385;28;20473;-80
2024/03/09 01:17:35;;;;;;;25.48;18.13;;;9.30;78.00;;;;;;4992117;28;20056;-79
2024/03/09 01:20:06;;;;;;;26.55;19.90;;;9.30;78.00;;;;;;5007237;28;20057;-90
2024/03/09 01:22:36;;;;;;;28.42;20.13;;;9.30;78.00;;;;;;4971040;28;20446;-79
2024/03/09 01:25:02;;;;;;;27.00;19.58;;;9.30;78.00;;;;;;4987090;28;20339;-91
2024/03/09 01:27:28;;;;;;;25.80;19.45;;;9.30;78.10;;;;;;4973782;28;20439;-79
2024/03/09 01:29:59;;;;;;;27.83;19.42;;;9.20;78.00;;;;;;4992208;28;20057;-91
2024/03/09 01:32:25;;;;;;;26.05;19.17;;;9.20;78.10;;;;;;4975702;28;20117;-91
2024/03/09 01:34:51;;;;;;;25.20;19.48;;;9.20;78.00;;;;;;4990518;28;20394;-79
2024/03/09 01:37:20;;;;;;;25.35;19.23;;;9.20;78.00;;;;;;4989282;28;20290;-78
2024/03/09 01:39:52;;;;;;;25.67;19.50;;;9.20;78.00;;;;;;4994327;28;20022;-79
2024/03/09 01:42:18;;;;;;;26.75;19.98;;;9.20;78.10;;;;;;4992569;28;20022;-79
2024/03/09 01:44:48;;;;;;;26.63;20.15;;;9.20;78.00;;;;;;5000454;28;20109;-90
2024/03/09 01:47:17;;;;;;;28.15;20.25;;;9.20;78.00;;;;;;5004662;28;20031;-89
2024/03/09 01:49:45;;;;;;;25.35;19.52;;;9.10;78.00;;;;;;4985519;28;20027;-79
2024/03/09 01:52:13;;;;;;;24.23;18.55;;;9.10;78.00;;;;;;4990651;28;20026;-89
2024/03/09 01:54:41;;;;;;;27.75;21.00;;;9.10;78.00;;;;;;4994781;28;20022;-90
2024/03/09 01:57:07;;;;;;;24.73;19.00;;;9.10;78.00;;;;;;4959774;28;20030;-80
2024/03/09 01:59:34;;;;;;;25.95;18.88;;;9.10;78.00;;;;;;4995640;28;20040;-79
2024/03/09 02:02:01;;;;;;;25.38;18.63;;;9.00;78.00;;;;;;4972802;28;20496;-90
2024/03/09 02:04:31;;;;;;;25.73;19.13;;;9.00;78.00;;;;;;4980037;28;20025;-90
2024/03/09 02:06:57;;;;;;;24.35;18.92;;;9.10;78.10;;;;;;5013544;28;20033;-90
2024/03/09 02:09:25;;;;;;;25.73;18.67;;;9.00;78.00;;;;;;4993682;28;20037;-90
2024/03/09 02:11:51;;;;;;;26.08;19.63;;;9.00;78.00;;;;;;4994298;28;21010;-79
2024/03/09 02:14:21;;;;;;;25.98;19.58;;;9.00;78.10;;;;;;4989417;28;20030;-90
2024/03/09 02:16:49;;;;;;;27.98;19.08;;;9.00;78.00;;;;;;4978101;28;20064;-90
2024/03/09 02:19:15;;;;;;;26.60;19.98;;;9.00;78.00;;;;;;4988977;28;20250;-79
2024/03/09 02:21:46;;;;;;;25.45;18.77;;;8.90;78.00;;;;;;4992214;28;20429;-79
2024/03/09 02:24:19;;;;;;;25.95;19.73;;;8.90;78.00;;;;;;4993499;28;20581;-91
2024/03/09 02:26:45;;;;;;;25.45;18.90;;;8.90;78.00;;;;;;4996447;28;20066;-79
2024/03/09 02:29:13;;;;;;;25.65;18.83;;;8.90;78.00;;;;;;5006013;28;20111;-90
2024/03/09 02:31:39;;;;;;;26.98;19.42;;;8.90;78.00;;;;;;4984980;28;20066;-79
2024/03/09 02:34:07;;;;;;;27.63;20.52;;;8.90;78.00;;;;;;5008613;28;20037;-79
2024/03/09 02:36:38;;;;;;;26.30;19.45;;;8.80;78.00;;;;;;4975888;28;20026;-89
2024/03/09 02:39:09;;;;;;;28.00;19.27;;;8.90;78.00;;;;;;4973910;28;20061;-89
2024/03/09 02:41:35;;;;;;;27.45;19.10;;;8.80;78.00;;;;;;5008763;28;20022;-89
2024/03/09 02:44:03;;;;;;;25.42;19.40;;;8.80;78.00;;;;;;4999703;28;20032;-89
2024/03/09 02:46:29;;;;;;;27.05;18.55;;;8.80;78.00;;;;;;4987844;28;20026;-80
2024/03/09 02:48:56;;;;;;;24.55;18.35;;;8.80;78.00;;;;;;4989471;28;20389;-91
2024/03/09 02:51:25;;;;;;;24.95;18.50;;;8.80;78.00;;;;;;4982348;28;20026;-91
2024/03/09 02:53:51;;;;;;;23.65;17.58;;;8.80;78.10;;;;;;4986095;28;20381;-89
2024/03/09 02:56:19;;;;;;;26.42;19.27;;;8.70;78.00;;;;;;4989836;28;20037;-79
2024/03/09 02:58:45;;;;;;;24.25;18.02;;;8.70;78.00;;;;;;4974754;28;20579;-89
2024/03/09 03:01:11;;;;;;;25.50;18.48;;;8.70;78.10;;;;;;4989005;28;20030;-79
2024/03/09 03:06:19;;;;;;;25.50;18.00;;;8.70;78.10;;;;;;4991808;28;20038;-89
2024/03/09 03:09:02;;;;;;;24.42;18.83;;;8.70;78.10;;;;;;5009072;28;20053;-79
2024/03/09 03:11:28;;;;;;;22.98;18.13;;;8.60;78.10;;;;;;4977562;28;20018;-79
2024/03/09 03:13:55;;;;;;;23.85;17.65;;;8.60;78.10;;;;;;4988212;28;20040;-79
2024/03/09 03:16:29;;;;;;;22.88;17.45;;;8.60;78.10;;;;;;4992998;28;20434;-78
2024/03/09 03:18:59;;;;;;;24.92;18.05;;;8.60;78.10;;;;;;4989985;28;20062;-79
2024/03/09 03:21:26;;;;;;;24.63;18.20;;;8.60;78.20;;;;;;4991937;28;20022;-89
2024/03/09 03:23:53;;;;;;;25.17;18.38;;;8.50;78.20;;;;;;4988149;28;20026;-79
2024/03/09 03:26:21;;;;;;;26.48;18.75;;;8.50;78.20;;;;;;4974949;28;20026;-79
2024/03/09 03:28:49;;;;;;;25.05;17.83;;;8.50;78.20;;;;;;4975613;28;20056;-79
2024/03/09 03:31:18;;;;;;;24.67;18.08;;;8.50;78.20;;;;;;4980948;28;20092;-77
2024/03/09 03:33:45;;;;;;;24.30;18.15;;;8.50;78.20;;;;;;5002862;28;20037;-79
2024/03/09 03:36:20;;;;;;;24.48;18.13;;;8.50;78.20;;;;;;5006295;28;20032;-89
2024/03/09 03:38:47;;;;;;;22.98;16.95;;;8.40;78.10;;;;;;4987254;28;20113;-79
2024/03/09 03:41:15;;;;;;;24.85;18.67;;;8.40;78.20;;;;;;5000581;28;20409;-79
2024/03/09 03:43:44;;;;;;;24.27;17.75;;;8.40;78.20;;;;;;4992134;28;20579;-78
2024/03/09 03:46:14;;;;;;;23.77;17.38;;;8.40;78.20;;;;;;4991812;28;20038;-78
2024/03/09 03:48:44;;;;;;;25.85;18.20;;;8.40;78.20;;;;;;4974334;28;20026;-78
2024/03/09 03:51:14;;;;;;;25.02;18.20;;;8.40;78.20;;;;;;4980155;28;20113;-78
2024/03/09 03:53:42;;;;;;;23.10;17.35;;;8.40;78.20;;;;;;4989296;28;20505;-78
2024/03/09 03:56:08;;;;;;;22.95;17.55;;;8.30;78.20;;;;;;4968895;28;20592;-78
2024/03/09 03:58:34;;;;;;;24.15;17.88;;;8.30;78.20;;;;;;4978984;28;20375;-88
2024/03/09 04:01:02;;;;;;;24.00;17.52;;;8.40;78.20;;;;;;4987879;28;20037;-78
2024/03/09 04:03:31;;;;;;;22.35;17.33;;;8.30;78.20;;;;;;4986509;28;20056;-88
2024/03/09 04:05:58;;;;;;;24.65;17.55;;;8.30;78.20;;;;;;4980861;28;20042;-78
2024/03/09 04:08:24;;;;;;;24.05;17.42;;;8.30;78.20;;;;;;4977142;28;20045;-88
2024/03/09 04:10:51;;;;;;;24.20;17.75;;;8.30;78.30;;;;;;5007943;28;20101;-78
2024/03/09 04:13:20;;;;;;;23.02;16.88;;;8.30;78.30;;;;;;4995493;28;20080;-89
2024/03/09 04:15:46;;;;;;;23.73;18.42;;;8.20;78.20;;;;;;4989180;28;20036;-89
2024/03/09 04:18:13;;;;;;;24.90;17.98;;;8.20;78.20;;;;;;4972821;28;20506;-78
2024/03/09 04:20:43;;;;;;;23.80;18.10;;;8.20;78.20;;;;;;4987016;28;20014;-79
2024/03/09 04:23:16;;;;;;;24.38;18.60;;;8.20;78.20;;;;;;4964563;28;20046;-90
2024/03/09 04:25:52;;;;;;;23.23;17.35;;;8.20;78.20;;;;;;4978987;28;20105;-77
2024/03/09 04:28:21;;;;;;;23.15;16.83;;;8.20;78.20;;;;;;4964096;28;20469;-78
2024/03/09 04:30:48;;;;;;;23.08;17.10;;;8.20;78.30;;;;;;4985534;28;20034;-79
2024/03/09 04:33:15;;;;;;;22.50;17.70;;;8.20;78.30;;;;;;4986965;28;20125;-78
2024/03/09 04:35:43;;;;;;;24.35;17.77;;;8.10;78.30;;;;;;4969490;28;20371;-79
2024/03/09 04:38:10;;;;;;;23.92;17.77;;;8.10;78.30;;;;;;4985062;28;20038;-89
2024/03/09 04:40:37;;;;;;;24.23;18.23;;;8.20;78.40;;;;;;4975289;28;20038;-89
2024/03/09 04:43:05;;;;;;;23.23;17.05;;;8.10;78.40;;;;;;4994856;28;20944;-78
2024/03/09 04:45:33;;;;;;;23.20;17.25;;;8.10;78.40;;;;;;4983660;28;20065;-90
2024/03/09 04:47:59;;;;;;;24.50;18.00;;;8.10;78.40;;;;;;5006059;28;20041;-79
2024/03/09 04:50:25;;;;;;;24.77;18.73;;;8.10;78.40;;;;;;4983912;28;20029;-91
2024/03/09 04:52:51;;;;;;;24.95;17.08;;;8.10;78.40;;;;;;4988851;28;20085;-79
2024/03/09 04:55:21;;;;;;;23.27;17.40;;;8.10;78.40;;;;;;4988443;28;20089;-79
2024/03/09 04:57:48;;;;;;;21.58;16.80;;;8.10;78.40;;;;;;4995103;28;20015;-90
2024/03/09 05:00:15;;;;;;;23.35;17.90;;;8.10;78.40;;;;;;4991429;28;20492;-80
2024/03/09 05:02:45;;;;;;;24.27;17.55;;;8.10;78.40;;;;;;4986920;28;20026;-90
2024/03/09 05:05:13;;;;;;;22.85;17.10;;;8.10;78.40;;;;;;4989951;28;20042;-79
2024/03/09 05:07:41;;;;;;;23.58;17.48;;;8.00;78.40;;;;;;4968940;28;20029;-79
2024/03/09 05:10:08;;;;;;;23.55;17.25;;;8.00;78.40;;;;;;5007867;28;20583;-91
2024/03/09 05:12:34;;;;;;;24.30;17.40;;;8.10;78.50;;;;;;4991730;28;20018;-90
2024/03/09 05:15:00;;;;;;;23.23;17.65;;;8.10;78.50;;;;;;4968100;28;20073;-89
2024/03/09 05:17:26;;;;;;;22.65;17.52;;;8.00;78.40;;;;;;4983182;28;20075;-90
2024/03/09 05:19:52;;;;;;;25.40;18.30;;;8.00;78.50;;;;;;4988191;28;20022;-90
2024/03/09 05:22:18;;;;;;;22.80;16.70;;;8.00;78.40;;;;;;4986068;28;20113;-79
2024/03/09 05:24:44;;;;;;;23.05;16.90;;;8.00;78.50;;;;;;4994640;28;20057;-90
2024/03/09 05:27:10;;;;;;;23.58;17.02;;;8.00;78.50;;;;;;4990181;28;20030;-92
2024/03/09 05:29:36;;;;;;;24.40;17.95;;;8.00;78.50;;;;;;4985115;28;20031;-79
2024/03/09 05:32:05;;;;;;;22.50;16.60;;;8.00;78.50;;;;;;4990536;28;20385;-79
2024/03/09 05:34:34;;;;;;;24.17;17.30;;;8.00;78.50;;;;;;4974317;28;20019;-79
2024/03/09 05:37:06;;;;;;;23.10;17.52;;;8.00;78.50;;;;;;4992936;28;20124;-89
2024/03/09 05:39:36;;;;;;;23.45;16.77;;;8.00;78.50;;;;;;4986895;28;20027;-78
2024/03/09 05:42:04;;;;;;;23.33;16.90;;;7.90;78.50;;;;;;5001679;28;20042;-79
2024/03/09 05:44:33;;;;;;;22.88;17.25;;;8.00;78.60;;;;;;4992706;28;20034;-79
2024/03/09 05:47:03;;;;;;;21.98;17.05;;;7.90;79.00;;;;;;4990767;28;20022;-90
2024/03/09 05:49:29;;;;;;;21.05;15.95;;;8.00;78.60;;;;;;5008256;28;20507;-90
2024/03/09 05:51:55;;;;;;;23.85;17.20;;;7.90;78.50;;;;;;4973427;28;20105;-89
2024/03/09 05:54:25;;;;;;;22.13;16.17;;;7.90;78.50;;;;;;4990042;28;20030;-90
2024/03/09 05:56:51;;;;;;;24.25;17.33;;;7.90;78.50;;;;;;4984009;28;20058;-79
2024/03/09 05:59:17;;;;;;;22.77;16.95;;;7.90;78.50;;;;;;4982890;28;20030;-79
2024/03/09 06:01:43;;;;;;;22.50;17.50;;;7.90;78.50;;;;;;4980016;28;20068;-79
2024/03/09 06:04:09;;;;;;;21.63;17.10;;;7.90;78.60;;;;;;4990999;28;20372;-89
2024/03/09 06:06:37;;;;;;;23.23;16.95;;;7.90;78.60;;;;;;4988834;28;20442;-89
2024/03/09 06:09:03;;;;;;;22.75;17.25;;;7.90;78.60;;;;;;4976248;28;21459;-89
2024/03/09 06:11:28;;;;;;;20.75;16.35;;;7.90;78.60;;;;;;4985823;28;20022;-89
2024/03/09 06:13:54;;;;;;;22.98;17.33;;;7.90;78.50;;;;;;4974948;28;20359;-88
2024/03/09 06:16:20;;;;;;;23.35;17.30;;;7.80;78.50;;;;;;4988938;28;20364;-79
2024/03/09 06:18:48;;;;;;;21.20;16.08;;;7.80;78.50;;;;;;4987489;28;20042;-78
2024/03/09 06:21:17;;;;;;;22.42;17.52;;;7.80;78.50;;;;;;4976157;28;20030;-88
2024/03/09 06:23:46;;;;;;;24.25;17.98;;;7.90;78.50;;;;;;4987066;28;20122;-79
2024/03/09 06:26:12;;;;;;;22.67;16.25;;;7.80;78.50;;;;;;4985036;28;20122;-79
2024/03/09 06:28:38;;;;;;;23.55;17.20;;;7.80;78.50;;;;;;4987913;28;20053;-79
2024/03/09 06:31:05;;;;;;;22.42;16.38;;;7.80;78.50;;;;;;4988893;28;20844;-89
2024/03/09 06:33:31;;;;;;;22.95;17.15;;;7.80;78.50;;;;;;4992176;28;20398;-78
2024/03/09 06:36:04;;;;;;;22.95;17.02;;;7.80;78.50;;;;;;4993446;28;20026;-78
2024/03/09 06:38:35;;;;;;;22.85;17.00;;;7.80;78.50;;;;;;4987747;28;20548;-89
2024/03/09 06:41:02;;;;;;;22.23;16.38;;;7.80;78.50;;;;;;4987184;28;20026;-79
2024/03/09 06:43:28;;;;;;;22.77;16.45;;;7.80;78.60;;;;;;4988769;28;20022;-78
2024/03/09 06:45:56;;;;;;;23.63;17.02;;;7.80;78.60;;;;;;5002838;28;20041;-87
2024/03/09 06:48:25;;;;;;;22.88;16.60;;;7.80;78.60;;;;;;4990288;28;20057;-88
2024/03/09 06:50:51;;;;;;;21.67;16.98;;;7.80;78.60;;;;;;4970673;28;20027;-89
2024/03/09 06:53:17;;;;;;;22.60;15.80;;;7.80;78.60;;;;;;4987431;28;20026;-77
2024/03/09 06:55:42;;;;;;;20.05;15.77;;;7.80;78.60;;;;;;5007968;28;20034;-78
2024/03/09 06:58:08;;;;;;;22.15;16.35;;;7.80;78.60;;;;;;4972205;28;20026;-85
2024/03/09 07:00:34;;;;;;;21.35;15.82;;;7.80;78.60;;;;;;4990490;28;20030;-77
2024/03/09 07:03:00;;;;;;;23.95;16.77;;;7.70;78.60;;;;;;4970662;28;20037;-92
2024/03/09 07:05:30;;;;;;;22.33;16.60;;;7.80;78.60;;;;;;4986095;28;20394;-79
2024/03/09 07:07:59;;;;;;;22.42;16.88;;;7.80;78.70;;;;;;4986859;28;20022;-85
2024/03/09 07:10:27;;;;;;;22.85;16.67;;;7.70;78.60;;;;;;4992114;28;20027;-79
2024/03/09 07:12:53;;;;;;;20.55;15.48;;;7.70;78.60;;;;;;4992578;28;20513;-85
2024/03/09 07:15:22;;;;;;;22.48;16.70;;;7.70;78.60;;;;;;4986762;28;20033;-78
2024/03/09 07:17:54;;;;;;;22.00;15.98;;;7.80;78.70;;;;;;4984491;28;20046;-81
2024/03/09 07:20:23;;;;;;;20.42;15.60;;;7.80;78.70;;;;;;4980198;28;20026;-80
2024/03/09 07:22:50;;;;;;;22.33;15.68;;;7.80;78.60;;;;;;5003556;28;20026;-78
2024/03/09 07:25:23;;;;;;;21.88;15.80;;;7.80;78.70;;;;;;4987799;28;20039;-78
2024/03/09 07:27:50;;;;;;;23.67;16.75;;;7.80;78.70;;;;;;5002858;28;20060;-78
2024/03/09 07:30:18;;;;;;;21.45;15.88;;;7.80;78.70;;;;;;4980842;28;20035;-78
2024/03/09 07:32:48;;;;;;;21.88;15.93;;;7.80;78.70;;;;;;4966486;28;20038;-88
2024/03/09 07:35:14;;;;;;;20.27;14.98;;;7.80;78.70;;;;;;4977429;28;20034;-78
2024/03/09 07:37:45;;;;;;;21.55;15.40;;;7.80;78.70;;;;;;4974694;28;20161;-79
2024/03/09 07:40:14;;;;;;;20.60;15.15;;;7.90;78.70;;;;;;4995905;28;20031;-78
2024/03/09 07:42:42;;;;;;;20.67;16.13;;;7.90;78.70;;;;;;4996235;28;20027;-79
2024/03/09 07:45:11;;;;;;;19.33;15.18;;;7.90;78.70;;;;;;4982448;28;20126;-87
2024/03/09 07:47:41;;;;;;;20.58;15.68;;;7.80;78.70;;;;;;4969774;28;20040;-87
2024/03/09 07:50:18;;;;;;;21.13;14.93;;;7.90;78.70;;;;;;4974487;28;20044;-88
2024/03/09 07:52:53;;;;;;;20.23;15.13;;;7.90;78.70;;;;;;4986791;28;20513;-78
2024/03/09 07:55:23;;;;;;;;;;;7.90;78.70;;;;;;4993486;28;20381;-78
2024/03/09 07:57:54;;;;;;;16.92;13.07;;;7.80;78.60;;;;;;4992654;28;19961;-78
2024/03/09 08:00:27;;;;;;;18.70;14.13;;;7.90;78.70;;;;;;4972302;28;20494;-92
2024/03/09 08:02:59;;;;;;;20.80;14.88;;;7.90;78.80;;;;;;4989103;28;20474;-89
2024/03/09 08:05:26;;;;;;;19.23;14.80;;;7.90;78.80;;;;;;4984326;28;20027;-90
2024/03/09 08:07:53;;;;;;;20.48;15.05;;;7.90;78.80;;;;;;4973106;28;20030;-80
2024/03/09 08:10:24;;;;;;;18.95;15.25;;;7.90;78.90;;;;;;4966302;28;20105;-79
2024/03/09 08:13:01;;;;;;;20.30;15.82;;;7.90;78.90;;;;;;4988939;28;20034;-84
2024/03/09 08:15:29;;;;;;;21.63;15.57;;;7.90;78.80;;;;;;4969559;28;20133;-79
2024/03/09 08:17:58;;;;;;;19.88;14.95;;;8.00;78.80;;;;;;4967941;28;20042;-92
2024/03/09 08:20:24;;;;;;;20.75;15.73;;;8.00;78.80;;;;;;4981691;28;20038;-88
2024/03/09 08:22:50;;;;;;;20.73;15.35;;;8.00;78.80;;;;;;4984439;28;20030;-92
2024/03/09 08:25:36;;;;;;;20.38;14.85;;;8.00;78.90;;;;;;4975297;28;20487;-87
2024/03/09 08:28:02;;;;;;;21.65;15.38;;;8.00;78.80;;;;;;4974124;28;20034;-78
2024/03/09 08:30:28;;;;;;;19.92;14.80;;;8.10;78.90;;;;;;4988776;28;20125;-87
2024/03/09 08:32:54;;;;;;;21.05;15.38;;;8.10;78.90;;;;;;4976750;28;20549;-87
2024/03/09 08:35:22;;;;;;;20.83;15.85;;;8.10;78.80;;;;;;4960334;28;20042;-88
2024/03/09 08:37:50;;;;;;;21.02;15.55;;;8.10;78.90;;;;;;4972870;28;20450;-79
2024/03/09 08:40:20;;;;;;;21.42;16.20;;;8.10;78.90;;;;;;4946761;28;20066;-79
2024/03/09 08:42:49;;;;;;;21.63;15.32;;;8.20;79.00;;;;;;4996838;28;20111;-79
2024/03/09 08:45:15;;;;;;;20.05;14.48;;;8.20;79.00;;;;;;4960088;28;20193;-80
2024/03/09 08:47:41;;;;;;;19.95;15.60;;;8.20;79.00;;;;;;4976703;28;20504;-85
2024/03/09 08:50:12;;;;;;;22.08;16.38;;;8.20;79.00;;;;;;4953174;28;20039;-78
2024/03/09 08:52:41;;;;;;;20.92;15.30;;;8.20;79.00;;;;;;4973451;28;20018;-91
2024/03/09 08:55:11;;;;;;;20.48;15.00;;;8.20;79.00;;;;;;4974238;28;20092;-80
2024/03/09 08:57:38;;;;;;;20.10;15.98;;;8.20;79.00;;;;;;4993119;28;20038;-80
2024/03/09 09:00:05;;;;;;;18.83;14.90;;;8.30;79.10;;;;;;4980926;28;20054;-80
2024/03/09 09:02:36;;;;;;;20.10;14.93;;;8.30;79.00;;;;;;4975146;28;20034;-79
2024/03/09 09:05:11;;;;;;;20.13;15.00;;;8.30;79.00;;;;;;4997622;28;20033;-92
2024/03/09 09:07:46;;;;;;;19.42;14.60;;;8.30;79.00;;;;;;4978027;28;20031;-78
2024/03/09 09:10:14;;;;;;;19.92;14.85;;;8.40;79.00;;;;;;4990508;28;20026;-79
2024/03/09 09:12:49;;;;;;;20.40;15.07;;;8.40;79.00;;;;;;4992096;28;20026;-87
2024/03/09 09:15:23;;;;;;;18.75;14.32;;;8.50;79.00;;;;;;4980635;28;20553;-87
2024/03/09 09:17:49;;;;;;;18.95;14.75;;;8.50;78.90;;;;;;4988192;28;20125;-79
2024/03/09 09:20:15;;;;;;;18.92;14.98;;;8.50;78.90;;;;;;4988437;28;20180;-78
2024/03/09 09:22:47;;;;;;;18.23;14.00;;;8.50;78.80;;;;;;4988375;28;20053;-78
2024/03/09 09:25:13;;;;;;;19.00;14.63;;;8.60;78.80;;;;;;4991480;28;20034;-79
2024/03/09 09:27:39;;;;;;;18.98;14.68;;;8.60;78.60;;;;;;4987290;28;20034;-78
2024/03/09 09:30:06;;;;;;;19.90;15.27;;;8.70;78.50;;;;;;4984747;28;20031;-78
2024/03/09 09:32:32;;;;;;;19.58;14.93;;;8.80;78.50;;;;;;4973756;28;20547;-92
2024/03/09 09:35:00;;;;;;;18.08;13.82;;;8.80;78.40;;;;;;4988491;28;20046;-78
2024/03/09 09:37:26;;;;;;;18.98;14.27;;;8.90;78.40;;;;;;5007327;28;20034;-86
2024/03/09 09:39:52;;;;;;;19.33;14.13;;;8.90;78.30;;;;;;4992569;28;20033;-93
2024/03/09 09:42:18;;;;;;;18.40;13.65;;;8.90;78.20;;;;;;4992923;28;20109;-87
2024/03/09 09:44:45;;;;;;;17.45;13.40;;;9.00;78.20;;;;;;4969780;28;20023;-87
2024/03/09 09:47:11;;;;;;;18.92;14.52;;;9.10;78.20;;;;;;5002660;28;20027;-86
2024/03/09 09:49:38;;;;;;;18.50;13.70;;;9.10;78.00;;;;;;4980202;28;20022;-78
2024/03/09 09:52:07;;;;;;;18.60;13.98;;;9.20;78.00;;;;;;4985874;28;20149;-79
2024/03/09 09:54:33;;;;;;;17.33;13.65;;;9.20;77.90;;;;;;4971781;28;20069;-78
2024/03/09 09:56:59;;;;;;;18.10;13.93;;;9.30;77.90;;;;;;4974457;28;20022;-87
2024/03/09 09:59:26;;;;;;;20.08;14.13;;;9.30;77.90;;;;;;5004361;28;20052;-78
2024/03/09 10:01:52;;;;;;;17.05;13.13;;;9.40;77.90;;;;;;4984793;28;20475;-78
2024/03/09 10:04:19;;;;;;;17.38;13.85;;;9.50;77.90;;;;;;4989040;28;20120;-79
2024/03/09 10:06:47;;;;;;;18.42;14.35;;;9.50;77.80;;;;;;4991167;28;20026;-93
2024/03/09 10:09:29;;;;;;;17.73;14.35;;;9.50;77.80;;;;;;4974882;28;20018;-79
2024/03/09 10:11:55;;;;;;;18.02;13.48;;;9.60;77.80;;;;;;4977831;28;20058;-78
2024/03/09 10:14:30;;;;;;;20.40;14.65;;;9.70;77.70;;;;;;4975568;28;20514;-79
2024/03/09 10:17:12;;;;;;;18.70;13.85;;;9.80;77.80;;;;;;4998211;28;20026;-77
2024/03/09 10:19:38;;;;;;;19.40;14.77;;;9.80;77.70;;;;;;4987760;28;20448;-80
2024/03/09 10:22:04;;;;;;;18.40;14.00;;;9.90;77.70;;;;;;4967509;28;20119;-88
2024/03/09 10:24:30;;;;;;;16.88;13.30;;;9.90;77.60;;;;;;4995024;28;20026;-79
2024/03/09 10:27:06;;;;;;;16.98;13.20;;;10.00;77.70;;;;;;5012180;28;20365;-79
2024/03/09 10:29:31;;;;;;;16.95;13.07;;;10.10;77.80;;;;;;4971020;28;20025;-78
2024/03/09 10:31:58;;;;;;;18.23;14.55;;;10.20;78.40;;;;;;4992150;28;20026;-78
2024/03/09 10:34:28;;;;;;;19.30;13.77;;;10.20;77.70;;;;;;4990749;28;20034;-88
2024/03/09 10:36:55;;;;;;;17.13;13.43;;;10.30;77.80;;;;;;4978557;28;20022;-79
2024/03/09 10:39:21;;;;;;;19.83;14.40;;;10.40;77.80;;;;;;4978682;28;20026;-93
2024/03/09 10:41:53;;;;;;;17.73;13.95;;;10.40;77.80;;;;;;4991708;28;20113;-79
2024/03/09 10:44:21;;;;;;;18.15;13.93;;;10.50;77.90;;;;;;4988251;28;20025;-79
2024/03/09 10:46:51;;;;;;;19.17;13.98;;;10.60;77.90;;;;;;4989537;28;20040;-91
2024/03/09 10:49:20;;;;;;;18.20;14.55;;;10.70;77.90;;;;;;4975285;28;20481;-91
2024/03/09 10:51:51;;;;;;;19.05;14.35;;;10.80;78.00;;;;;;4978847;28;20025;-84
2024/03/09 10:54:18;;;;;;;19.83;14.85;;;10.90;78.00;;;;;;4978495;28;20069;-95
2024/03/09 10:56:50;;;;;;;19.02;14.88;;;10.90;77.90;;;;;;5000653;28;20124;-78
2024/03/09 10:59:16;;;;;;;18.80;14.40;;;11.00;77.90;;;;;;4996959;28;20069;-92
2024/03/09 11:01:43;;;;;;;20.17;14.88;;;11.10;77.80;;;;;;5010410;28;20039;-90
2024/03/09 11:04:09;;;;;;;18.02;14.38;;;11.10;77.70;;;;;;4992815;28;20116;-92
2024/03/09 11:06:37;;;;;;;19.50;14.55;;;11.20;77.70;;;;;;5014013;28;20124;-91
2024/03/09 11:09:06;;;;;;;18.80;14.50;;;11.30;77.70;;;;;;4985136;28;20014;-85
2024/03/09 11:11:34;;;;;;;18.23;14.13;;;11.30;77.60;;;;;;4980973;28;20477;-87
2024/03/09 11:14:03;;;;;;;17.90;14.30;;;11.40;77.70;;;;;;4997990;28;20120;-81
2024/03/09 11:16:29;;;;;;;17.30;13.85;;;11.50;77.70;;;;;;4998967;28;20056;-82
2024/03/09 11:18:55;;;;;;;17.67;15.00;;;11.50;77.70;;;;;;4987810;28;20058;-82
2024/03/09 11:21:27;;;;;;;18.80;14.48;;;11.60;77.70;;;;;;4997273;28;20385;-94
2024/03/09 11:24:15;;;;;;;18.45;14.52;;;11.60;77.70;;;;;;5013891;28;20026;-85
2024/03/09 11:26:52;;;;;;;17.80;13.98;;;11.70;77.70;;;;;;5004455;28;20521;-85
2024/03/09 11:29:21;;;;;;;19.20;14.30;;;11.70;77.70;;;;;;4975376;28;20585;-82
2024/03/09 11:31:50;;;;;;;17.85;14.13;;;11.80;77.70;;;;;;4999847;28;20057;-91
2024/03/09 11:34:38;;;;;;;18.60;14.25;;;11.90;77.80;;;;;;4981907;28;20486;-90
2024/03/09 11:37:08;;;;;;;16.60;13.75;;;11.90;77.80;;;;;;4983106;28;20030;-88
2024/03/09 11:39:37;;;;;;;16.70;13.43;;;12.00;77.80;;;;;;5001386;28;20049;-88
2024/03/09 11:42:08;;;;;;;17.23;13.48;;;12.10;77.90;;;;;;5000716;28;20038;-89
2024/03/09 11:44:39;;;;;;;18.40;13.70;;;12.10;77.90;;;;;;5002068;28;20039;-90
2024/03/09 11:47:07;;;;;;;17.10;13.55;;;12.20;77.90;;;;;;4972296;28;20057;-87
2024/03/09 11:49:36;;;;;;;17.38;13.75;;;12.20;77.90;;;;;;4995874;28;20057;-82
2024/03/09 11:52:07;;;;;;;18.50;14.30;;;12.30;78.00;;;;;;4987447;28;20040;-82
2024/03/09 11:54:43;;;;;;;16.30;13.65;;;12.30;78.00;;;;;;5019142;28;20042;-87
2024/03/09 11:57:09;;;;;;;;;;;12.40;78.00;;;;;;5003993;28;20034;-87
2024/03/09 11:59:35;;;;;;;15.95;12.10;;;12.40;77.90;;;;;;5000007;28;20362;-87
2024/03/09 12:02:04;;;;;;;16.55;12.90;;;12.50;77.90;;;;;;4997754;28;20026;-91
2024/03/09 12:04:32;;;;;;;16.45;13.35;;;12.50;78.00;;;;;;4999519;28;20107;-82
2024/03/09 12:07:06;;;;;;;16.85;13.02;;;12.60;78.00;;;;;;4985484;28;20034;-82
2024/03/09 12:09:44;;;;;;;16.88;13.40;;;12.60;78.00;;;;;;5019101;28;20049;-90
2024/03/09 12:12:17;;;;;;;16.83;13.13;;;12.70;78.00;;;;;;5003486;28;20033;-90
2024/03/09 12:14:54;;;;;;;17.40;13.93;;;12.80;78.00;;;;;;5000714;28;20026;-90
2024/03/09 12:17:20;;;;;;;16.95;13.50;;;12.80;78.00;;;;;;4997893;28;20045;-88
2024/03/09 12:19:47;;;;;;;17.13;13.38;;;12.90;78.00;;;;;;4992401;28;20040;-89
2024/03/09 12:22:15;;;;;;;16.33;12.63;;;12.90;78.00;;;;;;5020544;28;20382;-86
2024/03/09 12:24:41;;;;;;;16.52;12.95;;;13.00;78.00;;;;;;4985935;28;20493;-89
2024/03/09 12:27:09;;;;;;;16.00;12.93;;;13.00;78.00;;;;;;5002371;28;20485;-86
2024/03/09 12:29:38;;;;;;;15.77;13.13;;;13.00;78.00;;;;;;4990943;28;20433;-89
2024/03/09 12:32:06;;;;;;;15.05;12.63;;;13.10;78.00;;;;;;4997696;28;20068;-90
2024/03/09 12:34:32;;;;;;;16.38;12.45;;;13.20;78.10;;;;;;4980255;28;20061;-89
2024/03/09 12:36:58;;;;;;;16.63;13.15;;;13.20;78.10;;;;;;5000945;28;20030;-81
2024/03/09 12:39:27;;;;;;;14.57;12.35;;;13.30;78.10;;;;;;5000504;28;20040;-86
2024/03/09 12:41:54;;;;;;;16.38;12.98;;;13.30;78.10;;;;;;4978878;28;20560;-82
2024/03/09 12:44:22;;;;;;;14.98;12.57;;;13.40;78.10;;;;;;4981480;28;20034;-86